Broken Arrow, OK (74012)

3:56 PM CST on February 19, 2018 (GMT -0600)
The Kennel | | Change Station

Elev 735 ft 36.04 °N, 95.81 °W | Updated 2 seconds ago

Overcast
Overcast
70.2 °F
Feels Like 71 °F
N
5.6
Wind Variable Wind from SSE
Gusts 10.3 mph

Today
High -- | Low -- °F
--% Chance of Precip.
Yesterday
High -- | Low -- °F
Precip. -- in
Pressure 29.75 in
Visibility 10.0 miles
Clouds Scattered Clouds 2500 ft
Mostly Cloudy 3400 ft
Overcast 11000 ft
Heat Index 71 °F
Dew Point 64 °F
Humidity 80%
Rainfall 0.23 in
Snow Depth Not available.
7:05 AM 6:08 PM
Waxing Crescent, 16% visible
METAR KRVS 192153Z 19017G28KT 10SM SCT025 BKN034 OVC110 22/17 A2973 RMK AO2 PK WND 18030/2139 LTG DSNT S AND SW SLP073 T02220167
Pressure 29.75 in
Visibility 10.0 miles
Clouds Scattered Clouds 2500 ft
Mostly Cloudy 3400 ft
Overcast 11000 ft
Heat Index 71 °F
Dew Point 64 °F
Humidity 80%
Rainfall 0.23 in
Snow Depth Not available.
7:05 AM 6:08 PM
Waxing Crescent, 16% visible
METAR KRVS 192153Z 19017G28KT 10SM SCT025 BKN034 OVC110 22/17 A2973 RMK AO2 PK WND 18030/2139 LTG DSNT S AND SW SLP073 T02220167

Get Severe Weather Alerts

Thanks for signing up!

Be on the lookout for a verification email in your inbox.

You'll start receiving the daily forecast at 6 AM.

×

10-Day Weather Forecast

Almanac

Astronomy

Feb. 19, 2018 Rise Set
Actual Time
Civil Twilight
Nautical Twilight
Astronomical Twilight
Moon
Length of Visible Light
Length of Day
Tomorrow will be .
, % of the Moon is Illuminated

Today's Extremes

State Highs State Lows

Community

WunderPhotos

Category 6

Welcome to Category 6. This is the collective home for Weather Underground's featured writeups by Dr. Jeff Masters (right), Bob Henson (left), Chris Burt, and other regular contributors.

Nearby

Air Quality

  Air Quality AQ Index Pollutant
Not available.

Snow Depth

Station Depth Elevation

Earthquake Activity

City Distance Mag. Time & Date
Minimum magnitude displayed is 2.5.

Coastal Water Temperatures

Place Temperature

Stations

Nearby Weather Stations

Station Location Temp. Windchill Dew Point Humidity Wind Precip. Elev Updated Type
                   

Watches & Warnings

There are currently no watches in effect.